Terminal Aerodrome Forecast
Issued by NWS Binghamton, NY

Home | Current Version | Previous Version | Text Only | Print | Product List | Glossary On
Versions: 1 2 3 4 5 6 7 8 9 10 11 12 13 14 15 16
481
FTUS41 KBGM 220900 AAA
TAFSYR
TAF AMD
KSYR 220900Z 2209/2306 10005KT P6SM SCT150 BKN250
     FM221300 22010G18KT P6SM SCT045 BKN100
     FM221600 23012G22KT P6SM BKN045
      TEMPO 2219/2223 VRB35KT 3SM +TSRA OVC025CB
     FM222300 27012G18KT P6SM BKN035=

USA.gov is the U.S. government's official web portal to all federal, state and local government web resources and services.